sensor_id;sensor_type;location;lat;lon;timestamp;P1;durP1;ratioP1;P2;durP2;ratioP2
30185;SDS011;31152;49.190;8.122;2023-11-19T00:00:08;2.50;;;1.58;;
30185;SDS011;31152;49.190;8.122;2023-11-19T00:02:39;1.77;;;1.10;;
30185;SDS011;31152;49.190;8.122;2023-11-19T00:05:06;2.15;;;1.38;;
30185;SDS011;31152;49.190;8.122;2023-11-19T00:07:35;2.40;;;1.23;;
30185;SDS011;31152;49.190;8.122;2023-11-19T00:10:03;2.72;;;1.35;;
30185;SDS011;31152;49.190;8.122;2023-11-19T00:12:42;2.88;;;1.30;;
30185;SDS011;31152;49.190;8.122;2023-11-19T00:15:16;4.72;;;1.20;;
30185;SDS011;31152;49.190;8.122;2023-11-19T00:17:45;1.98;;;0.95;;
30185;SDS011;31152;49.190;8.122;2023-11-19T00:20:16;1.40;;;0.80;;
30185;SDS011;31152;49.190;8.122;2023-11-19T00:22:44;3.70;;;0.70;;
30185;SDS011;31152;49.190;8.122;2023-11-19T00:25:16;1.40;;;0.90;;
30185;SDS011;31152;49.190;8.122;2023-11-19T00:27:43;1.00;;;0.70;;
30185;SDS011;31152;49.190;8.122;2023-11-19T00:30:13;1.90;;;0.70;;
30185;SDS011;31152;49.190;8.122;2023-11-19T00:32:41;1.98;;;0.90;;
30185;SDS011;31152;49.190;8.122;2023-11-19T00:35:08;2.22;;;0.70;;
30185;SDS011;31152;49.190;8.122;2023-11-19T00:37:40;0.82;;;0.75;;
30185;SDS011;31152;49.190;8.122;2023-11-19T00:40:12;1.27;;;0.60;;
30185;SDS011;31152;49.190;8.122;2023-11-19T00:42:45;1.40;;;0.65;;
30185;SDS011;31152;49.190;8.122;2023-11-19T00:45:11;3.13;;;0.52;;
30185;SDS011;31152;49.190;8.122;2023-11-19T00:47:39;1.02;;;0.70;;
30185;SDS011;31152;49.190;8.122;2023-11-19T00:50:06;0.60;;;0.47;;
30185;SDS011;31152;49.190;8.122;2023-11-19T00:52:37;0.82;;;0.63;;
30185;SDS011;31152;49.190;8.122;2023-11-19T00:55:05;1.02;;;0.60;;
30185;SDS011;31152;49.190;8.122;2023-11-19T00:57:33;1.27;;;0.60;;
30185;SDS011;31152;49.190;8.122;2023-11-19T01:00:00;1.08;;;0.60;;
30185;SDS011;31152;49.190;8.122;2023-11-19T01:02:26;0.75;;;0.45;;
30185;SDS011;31152;49.190;8.122;2023-11-19T01:04:56;0.82;;;0.60;;
30185;SDS011;31152;49.190;8.122;2023-11-19T01:07:23;1.27;;;0.47;;
30185;SDS011;31152;49.190;8.122;2023-11-19T01:09:53;1.88;;;0.60;;
30185;SDS011;31152;49.190;8.122;2023-11-19T01:12:20;0.77;;;0.55;;
30185;SDS011;31152;49.190;8.122;2023-11-19T01:14:47;1.35;;;0.68;;
30185;SDS011;31152;49.190;8.122;2023-11-19T01:17:13;1.30;;;0.52;;
30185;SDS011;31152;49.190;8.122;2023-11-19T01:19:42;1.65;;;0.93;;
30185;SDS011;31152;49.190;8.122;2023-11-19T01:22:09;1.58;;;0.63;;
30185;SDS011;31152;49.190;8.122;2023-11-19T01:24:36;1.17;;;0.70;;
30185;SDS011;31152;49.190;8.122;2023-11-19T01:27:03;1.40;;;0.52;;
30185;SDS011;31152;49.190;8.122;2023-11-19T01:29:34;1.92;;;0.77;;
30185;SDS011;31152;49.190;8.122;2023-11-19T01:32:01;0.70;;;0.70;;
30185;SDS011;31152;49.190;8.122;2023-11-19T01:34:28;0.43;;;0.43;;
30185;SDS011;31152;49.190;8.122;2023-11-19T01:36:55;0.70;;;0.60;;
30185;SDS011;31152;49.190;8.122;2023-11-19T01:39:21;1.08;;;0.70;;
30185;SDS011;31152;49.190;8.122;2023-11-19T01:41:48;0.80;;;0.50;;
30185;SDS011;31152;49.190;8.122;2023-11-19T01:44:15;0.80;;;0.52;;
30185;SDS011;31152;49.190;8.122;2023-11-19T01:46:43;0.50;;;0.50;;
30185;SDS011;31152;49.190;8.122;2023-11-19T01:49:14;0.55;;;0.40;;
30185;SDS011;31152;49.190;8.122;2023-11-19T01:51:41;1.25;;;0.68;;
30185;SDS011;31152;49.190;8.122;2023-11-19T01:54:09;1.17;;;0.60;;
30185;SDS011;31152;49.190;8.122;2023-11-19T01:56:36;0.70;;;0.50;;
30185;SDS011;31152;49.190;8.122;2023-11-19T01:59:07;1.00;;;0.60;;
30185;SDS011;31152;49.190;8.122;2023-11-19T02:01:35;0.32;;;0.30;;
30185;SDS011;31152;49.190;8.122;2023-11-19T02:04:07;1.02;;;0.60;;
30185;SDS011;31152;49.190;8.122;2023-11-19T02:06:36;0.80;;;0.50;;
30185;SDS011;31152;49.190;8.122;2023-11-19T02:09:08;0.40;;;0.40;;
30185;SDS011;31152;49.190;8.122;2023-11-19T02:11:39;0.88;;;0.60;;
30185;SDS011;31152;49.190;8.122;2023-11-19T02:14:07;1.25;;;0.40;;
30185;SDS011;31152;49.190;8.122;2023-11-19T02:16:33;2.05;;;0.40;;
30185;SDS011;31152;49.190;8.122;2023-11-19T02:19:00;0.90;;;0.40;;
30185;SDS011;31152;49.190;8.122;2023-11-19T02:21:30;0.50;;;0.50;;
30185;SDS011;31152;49.190;8.122;2023-11-19T02:23:56;0.80;;;0.50;;
30185;SDS011;31152;49.190;8.122;2023-11-19T02:29:06;0.50;;;0.50;;
30185;SDS011;31152;49.190;8.122;2023-11-19T02:31:34;0.70;;;0.70;;
30185;SDS011;31152;49.190;8.122;2023-11-19T02:34:01;0.50;;;0.50;;
30185;SDS011;31152;49.190;8.122;2023-11-19T02:36:29;1.00;;;0.90;;
30185;SDS011;31152;49.190;8.122;2023-11-19T02:38:55;1.05;;;0.95;;
30185;SDS011;31152;49.190;8.122;2023-11-19T02:41:22;1.00;;;0.90;;
30185;SDS011;31152;49.190;8.122;2023-11-19T02:43:49;2.05;;;1.30;;
30185;SDS011;31152;49.190;8.122;2023-11-19T02:46:18;3.20;;;1.55;;
30185;SDS011;31152;49.190;8.122;2023-11-19T02:48:45;1.65;;;1.42;;
30185;SDS011;31152;49.190;8.122;2023-11-19T02:51:12;5.20;;;1.77;;
30185;SDS011;31152;49.190;8.122;2023-11-19T02:53:39;3.50;;;2.00;;
30185;SDS011;31152;49.190;8.122;2023-11-19T02:56:10;3.53;;;2.60;;
30185;SDS011;31152;49.190;8.122;2023-11-19T02:58:52;3.85;;;3.00;;
30185;SDS011;31152;49.190;8.122;2023-11-19T03:01:23;3.67;;;2.92;;
30185;SDS011;31152;49.190;8.122;2023-11-19T03:03:57;5.22;;;3.83;;
30185;SDS011;31152;49.190;8.122;2023-11-19T03:06:25;4.60;;;3.90;;
30185;SDS011;31152;49.190;8.122;2023-11-19T03:08:52;6.80;;;4.20;;
30185;SDS011;31152;49.190;8.122;2023-11-19T03:11:19;5.38;;;4.15;;
30185;SDS011;31152;49.190;8.122;2023-11-19T03:13:46;5.18;;;4.45;;
30185;SDS011;31152;49.190;8.122;2023-11-19T03:16:13;5.72;;;4.63;;
30185;SDS011;31152;49.190;8.122;2023-11-19T03:18:40;6.28;;;5.05;;
30185;SDS011;31152;49.190;8.122;2023-11-19T03:21:07;6.63;;;5.03;;
30185;SDS011;31152;49.190;8.122;2023-11-19T03:23:36;7.07;;;5.03;;
30185;SDS011;31152;49.190;8.122;2023-11-19T03:26:03;7.88;;;5.30;;
30185;SDS011;31152;49.190;8.122;2023-11-19T03:28:32;8.18;;;5.43;;
30185;SDS011;31152;49.190;8.122;2023-11-19T03:30:59;8.38;;;5.95;;
30185;SDS011;31152;49.190;8.122;2023-11-19T03:33:26;9.30;;;5.47;;
30185;SDS011;31152;49.190;8.122;2023-11-19T03:35:58;6.50;;;5.05;;
30185;SDS011;31152;49.190;8.122;2023-11-19T03:38:26;7.13;;;5.30;;
30185;SDS011;31152;49.190;8.122;2023-11-19T03:40:55;6.60;;;5.03;;
30185;SDS011;31152;49.190;8.122;2023-11-19T03:43:22;7.95;;;5.43;;
30185;SDS011;31152;49.190;8.122;2023-11-19T03:45:51;8.00;;;5.72;;
30185;SDS011;31152;49.190;8.122;2023-11-19T03:48:18;7.72;;;5.40;;
30185;SDS011;31152;49.190;8.122;2023-11-19T03:50:45;9.15;;;5.63;;
30185;SDS011;31152;49.190;8.122;2023-11-19T03:53:12;7.82;;;5.43;;
30185;SDS011;31152;49.190;8.122;2023-11-19T03:55:39;7.43;;;5.40;;
30185;SDS011;31152;49.190;8.122;2023-11-19T03:58:06;8.95;;;5.93;;
30185;SDS011;31152;49.190;8.122;2023-11-19T04:00:35;9.05;;;5.57;;
30185;SDS011;31152;49.190;8.122;2023-11-19T04:03:02;8.85;;;6.68;;
30185;SDS011;31152;49.190;8.122;2023-11-19T04:05:29;10.10;;;6.53;;
30185;SDS011;31152;49.190;8.122;2023-11-19T04:07:58;8.00;;;5.78;;
30185;SDS011;31152;49.190;8.122;2023-11-19T04:10:25;9.32;;;6.00;;
30185;SDS011;31152;49.190;8.122;2023-11-19T04:12:53;9.38;;;6.80;;
30185;SDS011;31152;49.190;8.122;2023-11-19T04:15:23;9.30;;;6.45;;
30185;SDS011;31152;49.190;8.122;2023-11-19T04:17:52;9.07;;;6.40;;
30185;SDS011;31152;49.190;8.122;2023-11-19T04:20:21;8.52;;;6.40;;
30185;SDS011;31152;49.190;8.122;2023-11-19T04:22:49;9.05;;;5.90;;
30185;SDS011;31152;49.190;8.122;2023-11-19T04:25:17;9.02;;;5.97;;
30185;SDS011;31152;49.190;8.122;2023-11-19T04:27:45;9.60;;;6.05;;
30185;SDS011;31152;49.190;8.122;2023-11-19T04:30:14;10.68;;;6.50;;
30185;SDS011;31152;49.190;8.122;2023-11-19T04:32:43;11.48;;;6.20;;
30185;SDS011;31152;49.190;8.122;2023-11-19T04:35:12;7.90;;;5.78;;
30185;SDS011;31152;49.190;8.122;2023-11-19T04:37:41;11.68;;;6.00;;
30185;SDS011;31152;49.190;8.122;2023-11-19T04:40:08;9.38;;;5.82;;
30185;SDS011;31152;49.190;8.122;2023-11-19T04:42:36;8.02;;;5.43;;
30185;SDS011;31152;49.190;8.122;2023-11-19T04:45:03;11.93;;;6.25;;
30185;SDS011;31152;49.190;8.122;2023-11-19T04:47:34;13.65;;;6.35;;
30185;SDS011;31152;49.190;8.122;2023-11-19T04:50:01;9.85;;;5.50;;
30185;SDS011;31152;49.190;8.122;2023-11-19T04:52:29;8.60;;;5.40;;
30185;SDS011;31152;49.190;8.122;2023-11-19T04:54:56;9.63;;;5.50;;
30185;SDS011;31152;49.190;8.122;2023-11-19T04:57:25;8.20;;;5.82;;
30185;SDS011;31152;49.190;8.122;2023-11-19T04:59:53;9.43;;;5.05;;
30185;SDS011;31152;49.190;8.122;2023-11-19T05:02:22;9.85;;;5.72;;
30185;SDS011;31152;49.190;8.122;2023-11-19T05:04:49;9.60;;;4.80;;
30185;SDS011;31152;49.190;8.122;2023-11-19T05:07:16;12.98;;;5.50;;
30185;SDS011;31152;49.190;8.122;2023-11-19T05:09:43;6.40;;;4.68;;
30185;SDS011;31152;49.190;8.122;2023-11-19T05:12:12;9.18;;;4.90;;
30185;SDS011;31152;49.190;8.122;2023-11-19T05:14:39;7.53;;;4.65;;
30185;SDS011;31152;49.190;8.122;2023-11-19T05:17:05;6.97;;;4.65;;
30185;SDS011;31152;49.190;8.122;2023-11-19T05:19:37;6.65;;;4.68;;
30185;SDS011;31152;49.190;8.122;2023-11-19T05:22:04;8.52;;;4.63;;
30185;SDS011;31152;49.190;8.122;2023-11-19T05:24:32;9.20;;;4.32;;
30185;SDS011;31152;49.190;8.122;2023-11-19T05:26:59;7.40;;;3.80;;
30185;SDS011;31152;49.190;8.122;2023-11-19T05:29:25;6.03;;;4.05;;
30185;SDS011;31152;49.190;8.122;2023-11-19T05:31:53;6.95;;;4.05;;
30185;SDS011;31152;49.190;8.122;2023-11-19T05:34:23;5.47;;;3.72;;
30185;SDS011;31152;49.190;8.122;2023-11-19T05:36:51;9.75;;;4.30;;
30185;SDS011;31152;49.190;8.122;2023-11-19T05:39:20;6.03;;;3.55;;
30185;SDS011;31152;49.190;8.122;2023-11-19T05:41:47;5.82;;;3.60;;
30185;SDS011;31152;49.190;8.122;2023-11-19T05:44:14;6.05;;;3.40;;
30185;SDS011;31152;49.190;8.122;2023-11-19T05:46:43;11.48;;;4.13;;
30185;SDS011;31152;49.190;8.122;2023-11-19T05:49:10;6.07;;;3.92;;
30185;SDS011;31152;49.190;8.122;2023-11-19T05:51:38;4.43;;;3.40;;
30185;SDS011;31152;49.190;8.122;2023-11-19T05:54:09;4.88;;;3.22;;
30185;SDS011;31152;49.190;8.122;2023-11-19T05:56:36;3.78;;;3.17;;
30185;SDS011;31152;49.190;8.122;2023-11-19T05:59:04;7.95;;;3.65;;
30185;SDS011;31152;49.190;8.122;2023-11-19T06:01:36;5.65;;;3.20;;
30185;SDS011;31152;49.190;8.122;2023-11-19T06:04:07;6.22;;;3.10;;
30185;SDS011;31152;49.190;8.122;2023-11-19T06:06:34;5.07;;;3.17;;
30185;SDS011;31152;49.190;8.122;2023-11-19T06:09:04;7.68;;;2.90;;
30185;SDS011;31152;49.190;8.122;2023-11-19T06:11:34;4.07;;;2.63;;
30185;SDS011;31152;49.190;8.122;2023-11-19T06:14:02;6.95;;;2.60;;
30185;SDS011;31152;49.190;8.122;2023-11-19T06:16:34;5.22;;;2.70;;
30185;SDS011;31152;49.190;8.122;2023-11-19T06:19:03;4.07;;;2.33;;
30185;SDS011;31152;49.190;8.122;2023-11-19T06:21:32;3.75;;;2.20;;
30185;SDS011;31152;49.190;8.122;2023-11-19T06:23:58;7.57;;;2.08;;
30185;SDS011;31152;49.190;8.122;2023-11-19T06:26:25;2.80;;;1.88;;
30185;SDS011;31152;49.190;8.122;2023-11-19T06:28:54;3.72;;;1.90;;
30185;SDS011;31152;49.190;8.122;2023-11-19T06:31:21;7.72;;;3.03;;
30185;SDS011;31152;49.190;8.122;2023-11-19T06:33:48;3.70;;;2.08;;
30185;SDS011;31152;49.190;8.122;2023-11-19T06:36:15;2.53;;;1.50;;
30185;SDS011;31152;49.190;8.122;2023-11-19T06:38:44;2.65;;;1.50;;
30185;SDS011;31152;49.190;8.122;2023-11-19T06:41:11;4.10;;;2.25;;
30185;SDS011;31152;49.190;8.122;2023-11-19T06:43:38;5.07;;;1.77;;
30185;SDS011;31152;49.190;8.122;2023-11-19T06:46:15;4.68;;;1.70;;
30185;SDS011;31152;49.190;8.122;2023-11-19T06:48:43;5.65;;;2.05;;
30185;SDS011;31152;49.190;8.122;2023-11-19T06:51:13;2.72;;;1.58;;
30185;SDS011;31152;49.190;8.122;2023-11-19T06:53:40;2.17;;;1.38;;
30185;SDS011;31152;49.190;8.122;2023-11-19T06:56:18;4.10;;;1.70;;
30185;SDS011;31152;49.190;8.122;2023-11-19T06:58:49;2.25;;;1.48;;
30185;SDS011;31152;49.190;8.122;2023-11-19T07:01:17;3.03;;;1.45;;
30185;SDS011;31152;49.190;8.122;2023-11-19T07:03:47;3.03;;;1.48;;
30185;SDS011;31152;49.190;8.122;2023-11-19T07:06:15;3.17;;;1.10;;
30185;SDS011;31152;49.190;8.122;2023-11-19T07:08:42;3.78;;;1.25;;
30185;SDS011;31152;49.190;8.122;2023-11-19T07:11:12;2.65;;;1.40;;
30185;SDS011;31152;49.190;8.122;2023-11-19T07:13:43;4.80;;;1.50;;
30185;SDS011;31152;49.190;8.122;2023-11-19T07:16:13;2.72;;;1.23;;
30185;SDS011;31152;49.190;8.122;2023-11-19T07:18:42;1.55;;;1.10;;
30185;SDS011;31152;49.190;8.122;2023-11-19T07:21:10;4.25;;;1.00;;
30185;SDS011;31152;49.190;8.122;2023-11-19T07:23:37;1.38;;;1.20;;
30185;SDS011;31152;49.190;8.122;2023-11-19T07:26:04;3.85;;;1.20;;
30185;SDS011;31152;49.190;8.122;2023-11-19T07:28:34;4.65;;;1.50;;
30185;SDS011;31152;49.190;8.122;2023-11-19T07:31:01;3.60;;;1.20;;
30185;SDS011;31152;49.190;8.122;2023-11-19T07:33:28;2.17;;;0.98;;
30185;SDS011;31152;49.190;8.122;2023-11-19T07:35:55;2.40;;;1.10;;
30185;SDS011;31152;49.190;8.122;2023-11-19T07:38:22;3.53;;;1.00;;
30185;SDS011;31152;49.190;8.122;2023-11-19T07:40:49;5.07;;;1.10;;
30185;SDS011;31152;49.190;8.122;2023-11-19T07:43:19;2.08;;;0.73;;
30185;SDS011;31152;49.190;8.122;2023-11-19T07:45:45;1.95;;;0.73;;
30185;SDS011;31152;49.190;8.122;2023-11-19T07:48:15;2.58;;;0.80;;
30185;SDS011;31152;49.190;8.122;2023-11-19T07:50:41;4.72;;;0.95;;
30185;SDS011;31152;49.190;8.122;2023-11-19T07:53:08;2.45;;;0.80;;
30185;SDS011;31152;49.190;8.122;2023-11-19T07:55:35;4.95;;;1.20;;
30185;SDS011;31152;49.190;8.122;2023-11-19T07:58:07;2.42;;;0.95;;
30185;SDS011;31152;49.190;8.122;2023-11-19T08:00:34;2.38;;;0.82;;
30185;SDS011;31152;49.190;8.122;2023-11-19T08:03:01;7.18;;;1.08;;
30185;SDS011;31152;49.190;8.122;2023-11-19T08:05:28;3.45;;;1.10;;
30185;SDS011;31152;49.190;8.122;2023-11-19T08:07:57;4.22;;;0.90;;
30185;SDS011;31152;49.190;8.122;2023-11-19T08:10:24;1.95;;;0.60;;
30185;SDS011;31152;49.190;8.122;2023-11-19T08:12:51;5.40;;;0.75;;
30185;SDS011;31152;49.190;8.122;2023-11-19T08:15:18;4.40;;;0.60;;
30185;SDS011;31152;49.190;8.122;2023-11-19T08:17:52;2.67;;;0.90;;
30185;SDS011;31152;49.190;8.122;2023-11-19T08:20:19;3.85;;;1.00;;
30185;SDS011;31152;49.190;8.122;2023-11-19T08:22:46;4.15;;;0.98;;
30185;SDS011;31152;49.190;8.122;2023-11-19T08:25:13;4.68;;;0.90;;
30185;SDS011;31152;49.190;8.122;2023-11-19T08:27:40;3.58;;;0.82;;
30185;SDS011;31152;49.190;8.122;2023-11-19T08:30:09;3.40;;;0.90;;
30185;SDS011;31152;49.190;8.122;2023-11-19T08:32:38;2.90;;;0.90;;
30185;SDS011;31152;49.190;8.122;2023-11-19T08:35:05;4.50;;;1.00;;
30185;SDS011;31152;49.190;8.122;2023-11-19T08:37:33;5.75;;;0.82;;
30185;SDS011;31152;49.190;8.122;2023-11-19T08:40:02;1.60;;;0.70;;
30185;SDS011;31152;49.190;8.122;2023-11-19T08:42:30;2.88;;;0.70;;
30185;SDS011;31152;49.190;8.122;2023-11-19T08:44:59;4.70;;;1.10;;
30185;SDS011;31152;49.190;8.122;2023-11-19T08:47:26;3.13;;;0.70;;
30185;SDS011;31152;49.190;8.122;2023-11-19T08:49:53;3.67;;;1.15;;
30185;SDS011;31152;49.190;8.122;2023-11-19T08:52:24;2.88;;;1.00;;
30185;SDS011;31152;49.190;8.122;2023-11-19T08:54:50;3.20;;;0.60;;
30185;SDS011;31152;49.190;8.122;2023-11-19T08:57:19;5.55;;;0.77;;
30185;SDS011;31152;49.190;8.122;2023-11-19T08:59:48;3.65;;;1.08;;
30185;SDS011;31152;49.190;8.122;2023-11-19T09:02:15;5.45;;;1.40;;
30185;SDS011;31152;49.190;8.122;2023-11-19T09:04:42;4.18;;;1.30;;
30185;SDS011;31152;49.190;8.122;2023-11-19T09:07:09;4.35;;;1.48;;
30185;SDS011;31152;49.190;8.122;2023-11-19T09:09:36;6.47;;;1.25;;
30185;SDS011;31152;49.190;8.122;2023-11-19T09:12:03;2.50;;;1.00;;
30185;SDS011;31152;49.190;8.122;2023-11-19T09:14:31;3.28;;;0.82;;
30185;SDS011;31152;49.190;8.122;2023-11-19T09:16:58;3.95;;;1.33;;
30185;SDS011;31152;49.190;8.122;2023-11-19T09:19:25;2.45;;;1.02;;
30185;SDS011;31152;49.190;8.122;2023-11-19T09:21:55;2.88;;;1.05;;
30185;SDS011;31152;49.190;8.122;2023-11-19T10:02:05;3.13;;;1.00;;
30185;SDS011;31152;49.190;8.122;2023-11-19T10:04:35;5.82;;;0.90;;
30185;SDS011;31152;49.190;8.122;2023-11-19T10:07:03;4.53;;;0.70;;
30185;SDS011;31152;49.190;8.122;2023-11-19T10:09:30;2.72;;;1.15;;
30185;SDS011;31152;49.190;8.122;2023-11-19T10:12:02;3.85;;;1.05;;
30185;SDS011;31152;49.190;8.122;2023-11-19T10:14:29;2.30;;;0.77;;
30185;SDS011;31152;49.190;8.122;2023-11-19T10:16:57;3.05;;;1.05;;
30185;SDS011;31152;49.190;8.122;2023-11-19T10:19:25;1.75;;;0.73;;
30185;SDS011;31152;49.190;8.122;2023-11-19T10:21:52;3.33;;;0.95;;
30185;SDS011;31152;49.190;8.122;2023-11-19T10:24:30;4.20;;;1.00;;
30185;SDS011;31152;49.190;8.122;2023-11-19T10:26:59;1.50;;;0.80;;
30185;SDS011;31152;49.190;8.122;2023-11-19T10:29:29;3.78;;;0.88;;
30185;SDS011;31152;49.190;8.122;2023-11-19T10:31:57;2.72;;;0.90;;
30185;SDS011;31152;49.190;8.122;2023-11-19T10:34:44;5.45;;;0.80;;
30185;SDS011;31152;49.190;8.122;2023-11-19T10:37:29;3.05;;;0.77;;
30185;SDS011;31152;49.190;8.122;2023-11-19T10:40:02;3.83;;;0.63;;
30185;SDS011;31152;49.190;8.122;2023-11-19T10:42:37;2.60;;;0.70;;
30185;SDS011;31152;49.190;8.122;2023-11-19T10:45:04;3.42;;;0.98;;
30185;SDS011;31152;49.190;8.122;2023-11-19T10:47:31;6.82;;;1.00;;
30185;SDS011;31152;49.190;8.122;2023-11-19T10:50:04;2.73;;;0.90;;
30185;SDS011;31152;49.190;8.122;2023-11-19T10:52:32;3.97;;;0.77;;
30185;SDS011;31152;49.190;8.122;2023-11-19T10:55:02;3.00;;;0.93;;
30185;SDS011;31152;49.190;8.122;2023-11-19T10:57:38;2.92;;;0.88;;
30185;SDS011;31152;49.190;8.122;2023-11-19T11:00:10;1.65;;;0.80;;
30185;SDS011;31152;49.190;8.122;2023-11-19T11:02:47;4.88;;;0.90;;
30185;SDS011;31152;49.190;8.122;2023-11-19T11:05:19;5.13;;;0.90;;
30185;SDS011;31152;49.190;8.122;2023-11-19T11:07:54;3.03;;;0.82;;
30185;SDS011;31152;49.190;8.122;2023-11-19T11:10:24;3.70;;;1.00;;
30185;SDS011;31152;49.190;8.122;2023-11-19T11:12:52;2.10;;;0.60;;
30185;SDS011;31152;49.190;8.122;2023-11-19T11:15:26;6.10;;;0.98;;
30185;SDS011;31152;49.190;8.122;2023-11-19T11:17:59;1.92;;;0.75;;
30185;SDS011;31152;49.190;8.122;2023-11-19T11:20:31;3.30;;;0.85;;
30185;SDS011;31152;49.190;8.122;2023-11-19T11:26:23;2.90;;;0.60;;
30185;SDS011;31152;49.190;8.122;2023-11-19T11:28:59;5.63;;;1.35;;
30185;SDS011;31152;49.190;8.122;2023-11-19T11:37:10;3.67;;;0.82;;
30185;SDS011;31152;49.190;8.122;2023-11-19T11:39:50;2.28;;;0.80;;
30185;SDS011;31152;49.190;8.122;2023-11-19T11:44:59;7.72;;;1.00;;
30185;SDS011;31152;49.190;8.122;2023-11-19T11:50:18;2.95;;;0.70;;
30185;SDS011;31152;49.190;8.122;2023-11-19T11:55:24;4.35;;;1.00;;
30185;SDS011;31152;49.190;8.122;2023-11-19T11:58:00;4.72;;;1.20;;
30185;SDS011;31152;49.190;8.122;2023-11-19T12:00:30;5.32;;;0.93;;
30185;SDS011;31152;49.190;8.122;2023-11-19T12:02:59;2.92;;;0.80;;
30185;SDS011;31152;49.190;8.122;2023-11-19T12:05:26;5.80;;;1.10;;
30185;SDS011;31152;49.190;8.122;2023-11-19T12:08:04;2.70;;;1.20;;
30185;SDS011;31152;49.190;8.122;2023-11-19T12:10:36;2.90;;;0.88;;
30185;SDS011;31152;49.190;8.122;2023-11-19T12:13:16;2.08;;;0.60;;
30185;SDS011;31152;49.190;8.122;2023-11-19T12:16:06;4.15;;;0.93;;
30185;SDS011;31152;49.190;8.122;2023-11-19T12:18:33;1.90;;;0.73;;
30185;SDS011;31152;49.190;8.122;2023-11-19T12:21:00;2.55;;;1.10;;
30185;SDS011;31152;49.190;8.122;2023-11-19T12:23:31;6.60;;;1.20;;
30185;SDS011;31152;49.190;8.122;2023-11-19T12:26:03;2.60;;;1.20;;
30185;SDS011;31152;49.190;8.122;2023-11-19T12:28:29;3.15;;;1.20;;
30185;SDS011;31152;49.190;8.122;2023-11-19T12:31:07;5.63;;;1.00;;
30185;SDS011;31152;49.190;8.122;2023-11-19T12:33:40;2.45;;;0.85;;
30185;SDS011;31152;49.190;8.122;2023-11-19T12:36:07;1.85;;;0.80;;
30185;SDS011;31152;49.190;8.122;2023-11-19T12:38:34;5.18;;;1.20;;
30185;SDS011;31152;49.190;8.122;2023-11-19T12:41:03;2.67;;;0.88;;
30185;SDS011;31152;49.190;8.122;2023-11-19T12:43:34;2.30;;;0.70;;
30185;SDS011;31152;49.190;8.122;2023-11-19T12:46:17;4.80;;;1.10;;
30185;SDS011;31152;49.190;8.122;2023-11-19T12:48:46;2.88;;;0.70;;
30185;SDS011;31152;49.190;8.122;2023-11-19T12:51:16;4.13;;;0.80;;
30185;SDS011;31152;49.190;8.122;2023-11-19T12:53:47;4.55;;;0.93;;
30185;SDS011;31152;49.190;8.122;2023-11-19T12:56:21;3.72;;;0.70;;
30185;SDS011;31152;49.190;8.122;2023-11-19T12:58:48;7.43;;;1.13;;
30185;SDS011;31152;49.190;8.122;2023-11-19T13:01:17;7.53;;;1.45;;
30185;SDS011;31152;49.190;8.122;2023-11-19T13:03:46;3.38;;;0.90;;
30185;SDS011;31152;49.190;8.122;2023-11-19T13:06:17;3.15;;;0.77;;
30185;SDS011;31152;49.190;8.122;2023-11-19T13:08:48;4.00;;;0.85;;
30185;SDS011;31152;49.190;8.122;2023-11-19T13:11:31;3.35;;;0.93;;
30185;SDS011;31152;49.190;8.122;2023-11-19T13:13:59;2.53;;;1.00;;
30185;SDS011;31152;49.190;8.122;2023-11-19T13:16:30;4.28;;;1.20;;
30185;SDS011;31152;49.190;8.122;2023-11-19T13:18:58;5.75;;;1.60;;
30185;SDS011;31152;49.190;8.122;2023-11-19T13:21:26;2.88;;;0.73;;
30185;SDS011;31152;49.190;8.122;2023-11-19T13:23:56;3.35;;;1.10;;
30185;SDS011;31152;49.190;8.122;2023-11-19T13:26:26;3.90;;;0.88;;
30185;SDS011;31152;49.190;8.122;2023-11-19T13:28:53;3.15;;;1.10;;
30185;SDS011;31152;49.190;8.122;2023-11-19T13:31:20;6.88;;;1.63;;
30185;SDS011;31152;49.190;8.122;2023-11-19T13:33:48;4.25;;;0.95;;
30185;SDS011;31152;49.190;8.122;2023-11-19T13:36:15;6.05;;;1.17;;
30185;SDS011;31152;49.190;8.122;2023-11-19T13:38:43;2.40;;;0.85;;
30185;SDS011;31152;49.190;8.122;2023-11-19T13:41:16;4.68;;;1.10;;
30185;SDS011;31152;49.190;8.122;2023-11-19T13:43:43;5.40;;;1.10;;
30185;SDS011;31152;49.190;8.122;2023-11-19T13:46:10;3.40;;;0.90;;
30185;SDS011;31152;49.190;8.122;2023-11-19T13:48:37;4.07;;;1.05;;
30185;SDS011;31152;49.190;8.122;2023-11-19T13:51:05;3.88;;;1.17;;
30185;SDS011;31152;49.190;8.122;2023-11-19T13:53:32;2.75;;;1.00;;
30185;SDS011;31152;49.190;8.122;2023-11-19T13:56:17;2.90;;;1.10;;
30185;SDS011;31152;49.190;8.122;2023-11-19T13:58:44;7.22;;;0.82;;
30185;SDS011;31152;49.190;8.122;2023-11-19T14:01:11;2.13;;;0.82;;
30185;SDS011;31152;49.190;8.122;2023-11-19T14:03:40;4.00;;;1.00;;
30185;SDS011;31152;49.190;8.122;2023-11-19T14:06:08;1.65;;;0.85;;
30185;SDS011;31152;49.190;8.122;2023-11-19T14:08:36;3.40;;;1.08;;
30185;SDS011;31152;49.190;8.122;2023-11-19T14:11:04;4.15;;;1.27;;
30185;SDS011;31152;49.190;8.122;2023-11-19T14:13:31;2.30;;;0.90;;
30185;SDS011;31152;49.190;8.122;2023-11-19T14:16:01;3.80;;;1.10;;
30185;SDS011;31152;49.190;8.122;2023-11-19T14:18:29;3.25;;;1.20;;
30185;SDS011;31152;49.190;8.122;2023-11-19T14:20:59;6.13;;;1.15;;
30185;SDS011;31152;49.190;8.122;2023-11-19T14:23:26;4.07;;;1.10;;
30185;SDS011;31152;49.190;8.122;2023-11-19T14:25:54;4.75;;;1.05;;
30185;SDS011;31152;49.190;8.122;2023-11-19T14:28:23;4.85;;;1.02;;
30185;SDS011;31152;49.190;8.122;2023-11-19T14:30:51;4.93;;;0.98;;
30185;SDS011;31152;49.190;8.122;2023-11-19T14:33:23;4.60;;;1.13;;
30185;SDS011;31152;49.190;8.122;2023-11-19T14:35:53;2.50;;;1.08;;
30185;SDS011;31152;49.190;8.122;2023-11-19T14:38:20;4.57;;;1.13;;
30185;SDS011;31152;49.190;8.122;2023-11-19T14:40:47;3.80;;;1.00;;
30185;SDS011;31152;49.190;8.122;2023-11-19T14:43:16;4.35;;;1.25;;
30185;SDS011;31152;49.190;8.122;2023-11-19T14:45:43;4.80;;;1.13;;
30185;SDS011;31152;49.190;8.122;2023-11-19T14:48:15;4.20;;;1.10;;
30185;SDS011;31152;49.190;8.122;2023-11-19T14:50:44;7.15;;;1.45;;
30185;SDS011;31152;49.190;8.122;2023-11-19T14:53:11;3.53;;;1.10;;
30185;SDS011;31152;49.190;8.122;2023-11-19T14:55:38;4.95;;;0.95;;
30185;SDS011;31152;49.190;8.122;2023-11-19T14:58:07;3.05;;;1.17;;
30185;SDS011;31152;49.190;8.122;2023-11-19T15:00:38;4.20;;;1.10;;
30185;SDS011;31152;49.190;8.122;2023-11-19T15:03:07;7.85;;;1.27;;
30185;SDS011;31152;49.190;8.122;2023-11-19T15:05:35;6.78;;;1.42;;
30185;SDS011;31152;49.190;8.122;2023-11-19T15:08:05;8.02;;;1.50;;
30185;SDS011;31152;49.190;8.122;2023-11-19T15:10:34;4.93;;;1.27;;
30185;SDS011;31152;49.190;8.122;2023-11-19T15:13:01;4.78;;;0.90;;
30185;SDS011;31152;49.190;8.122;2023-11-19T15:15:28;4.85;;;1.10;;
30185;SDS011;31152;49.190;8.122;2023-11-19T15:17:58;3.72;;;0.82;;
30185;SDS011;31152;49.190;8.122;2023-11-19T15:20:25;3.08;;;0.90;;
30185;SDS011;31152;49.190;8.122;2023-11-19T15:22:56;7.85;;;1.55;;
30185;SDS011;31152;49.190;8.122;2023-11-19T15:25:24;4.93;;;1.10;;
30185;SDS011;31152;49.190;8.122;2023-11-19T15:27:52;4.65;;;1.05;;
30185;SDS011;31152;49.190;8.122;2023-11-19T15:30:19;4.03;;;0.80;;
30185;SDS011;31152;49.190;8.122;2023-11-19T15:32:46;4.45;;;1.10;;
30185;SDS011;31152;49.190;8.122;2023-11-19T15:35:13;5.75;;;1.05;;
30185;SDS011;31152;49.190;8.122;2023-11-19T15:37:40;4.35;;;1.30;;
30185;SDS011;31152;49.190;8.122;2023-11-19T15:40:11;5.63;;;1.10;;
30185;SDS011;31152;49.190;8.122;2023-11-19T15:42:39;6.05;;;1.38;;
30185;SDS011;31152;49.190;8.122;2023-11-19T15:45:07;7.85;;;1.65;;
30185;SDS011;31152;49.190;8.122;2023-11-19T15:47:34;5.40;;;1.40;;
30185;SDS011;31152;49.190;8.122;2023-11-19T15:50:04;4.68;;;1.17;;
30185;SDS011;31152;49.190;8.122;2023-11-19T15:52:31;6.30;;;1.25;;
30185;SDS011;31152;49.190;8.122;2023-11-19T15:54:59;4.80;;;0.80;;